Time;durP1;ratioP1;P1;durP2;ratioP2;P2;SDS_P1;SDS_P2;PMS_P1;PMS_P2;Temp;Humidity;BMP_temperature;BMP_pressure;BME280_temperature;BME280_humidity;BME280_pressure;Samples;Min_cycle;Max_cycle;Signal;HPM_P1;HPM_P2
2022/09/12 00:01:24;;;;;;;0.70;0.30;;;16.50;96.10;;;;;;5065157;28;20201;-80
2022/09/12 00:03:58;;;;;;;1.00;0.40;;;16.50;96.70;;;;;;5064431;28;20720;-83
2022/09/12 00:06:31;;;;;;;3.45;0.30;;;16.80;97.20;;;;;;5069423;28;20200;-80
2022/09/12 00:09:03;;;;;;;1.67;0.50;;;16.80;94.70;;;;;;5068547;28;20213;-82
2022/09/12 00:11:38;;;;;;;1.55;0.35;;;16.80;95.40;;;;;;5068593;28;20227;-80
2022/09/12 00:14:10;;;;;;;0.90;0.50;;;16.90;96.40;;;;;;5067364;28;20202;-81
2022/09/12 00:16:43;;;;;;;1.42;0.50;;;17.00;96.00;;;;;;5068497;28;20223;-82
2022/09/12 00:19:14;;;;;;;2.30;0.60;;;17.20;95.70;;;;;;5067214;28;20200;-81
2022/09/12 00:21:45;;;;;;;0.57;0.55;;;17.20;92.80;;;;;;5071892;28;20210;-83
2022/09/12 00:24:16;;;;;;;2.95;0.68;;;17.30;93.50;;;;;;5073058;28;20224;-81
2022/09/12 00:26:49;;;;;;;1.55;0.35;;;17.40;92.80;;;;;;5073078;28;20196;-81
2022/09/12 00:29:22;;;;;;;0.75;0.38;;;17.20;91.10;;;;;;5068322;28;20220;-81
2022/09/12 00:31:53;;;;;;;0.90;0.35;;;17.20;91.50;;;;;;5067672;28;20561;-81
2022/09/12 00:34:24;;;;;;;0.68;0.57;;;17.10;92.90;;;;;;5068910;28;20196;-82
2022/09/12 00:36:55;;;;;;;2.78;0.60;;;17.30;91.20;;;;;;5071542;28;20216;-81
2022/09/12 00:39:25;;;;;;;1.00;0.40;;;17.30;92.10;;;;;;5069921;28;20224;-81
2022/09/12 00:41:58;;;;;;;1.80;0.93;;;17.40;92.40;;;;;;5070870;28;20200;-82
2022/09/12 00:44:53;;;;;;;1.15;0.50;;;17.60;91.70;;;;;;5072326;28;20226;-84
2022/09/12 00:47:28;;;;;;;1.85;0.40;;;17.70;90.10;;;;;;5066919;28;20211;-81
2022/09/12 00:50:06;;;;;;;0.85;0.40;;;17.50;88.40;;;;;;5070424;28;20208;-82
2022/09/12 00:52:42;;;;;;;0.90;0.50;;;17.60;89.20;;;;;;5066906;28;20650;-82
2022/09/12 00:55:17;;;;;;;1.20;0.43;;;17.60;87.70;;;;;;5066150;28;20216;-82
2022/09/12 00:57:54;;;;;;;2.47;0.50;;;17.80;88.40;;;;;;5061060;28;20562;-83
2022/09/12 01:00:26;;;;;;;2.63;0.50;;;18.00;87.60;;;;;;5071153;28;20199;-82
2022/09/12 01:03:01;;;;;;;1.38;0.57;;;17.90;85.20;;;;;;5065389;28;20219;-83
2022/09/12 01:05:35;;;;;;;1.58;0.55;;;18.00;86.20;;;;;;5072048;28;20570;-82
2022/09/12 01:08:07;;;;;;;1.05;0.40;;;18.10;83.20;;;;;;5072150;28;20563;-82
2022/09/12 01:10:39;;;;;;;1.75;0.40;;;18.20;85.30;;;;;;5070445;28;20207;-83
2022/09/12 01:13:13;;;;;;;0.80;0.40;;;18.30;82.70;;;;;;5071387;28;20545;-83
2022/09/12 01:15:44;;;;;;;3.10;0.60;;;18.30;83.10;;;;;;5072138;28;20196;-84
2022/09/12 01:18:22;;;;;;;0.85;0.50;;;18.40;83.50;;;;;;5069997;28;20566;-83
2022/09/12 01:21:24;;;;;;;2.20;0.50;;;18.50;80.40;;;;;;5068068;28;20675;-83
2022/09/12 01:24:24;;;;;;;1.15;0.40;;;18.50;80.50;;;;;;5067943;28;20227;-83
2022/09/12 01:27:28;;;;;;;0.68;0.40;;;18.60;82.10;;;;;;5069487;28;20214;-83
2022/09/12 01:30:29;;;;;;;4.72;0.40;;;18.80;80.50;;;;;;5065638;28;20253;-83
2022/09/12 01:33:25;;;;;;;2.10;0.40;;;18.70;76.40;;;;;;5069124;28;20195;-82
2022/09/12 01:36:07;;;;;;;0.30;0.30;;;18.70;78.30;;;;;;5068997;28;20225;-82
2022/09/12 01:38:41;;;;;;;0.88;0.43;;;18.90;79.30;;;;;;5070462;28;20596;-82
2022/09/12 01:41:22;;;;;;;0.52;0.40;;;18.90;76.20;;;;;;5072473;28;20290;-80
2022/09/12 01:44:00;;;;;;;0.98;0.45;;;19.00;73.90;;;;;;5071460;28;20219;-82
2022/09/12 01:46:36;;;;;;;1.65;0.40;;;19.00;71.90;;;;;;5071902;28;20242;-82
2022/09/12 01:49:17;;;;;;;0.47;0.35;;;19.00;71.30;;;;;;5063398;28;20192;-80
2022/09/12 01:51:57;;;;;;;1.38;0.40;;;19.10;73.70;;;;;;5069219;28;20192;-81
2022/09/12 01:54:33;;;;;;;0.73;0.40;;;19.10;73.40;;;;;;5069653;28;20215;-82
2022/09/12 01:57:14;;;;;;;0.52;0.40;;;19.10;74.10;;;;;;5069056;28;20219;-82
2022/09/12 01:59:48;;;;;;;1.05;0.38;;;19.30;74.50;;;;;;5069967;28;20196;-82
2022/09/12 02:02:25;;;;;;;4.05;0.50;;;19.50;74.20;;;;;;5072158;28;20204;-81
2022/09/12 02:05:01;;;;;;;0.95;0.50;;;19.60;72.90;;;;;;5058971;28;20221;-84
2022/09/12 02:07:37;;;;;;;2.22;0.30;;;19.80;69.10;;;;;;5069768;28;20194;-82
2022/09/12 02:10:14;;;;;;;1.60;0.60;;;19.90;70.50;;;;;;5070561;28;20204;-82
2022/09/12 02:12:51;;;;;;;0.45;0.40;;;20.00;68.40;;;;;;5067139;28;20235;-81
2022/09/12 02:15:25;;;;;;;2.25;0.50;;;19.80;69.40;;;;;;5058100;28;20204;-83
2022/09/12 02:18:00;;;;;;;1.08;0.50;;;19.90;70.20;;;;;;5069557;28;20200;-83
2022/09/12 02:20:35;;;;;;;1.20;0.60;;;20.00;68.20;;;;;;5069197;28;20192;-82
2022/09/12 02:23:10;;;;;;;1.02;0.32;;;19.80;67.30;;;;;;5060500;28;20191;-80
2022/09/12 02:25:44;;;;;;;1.67;0.50;;;19.70;68.80;;;;;;5069441;28;20219;-82
2022/09/12 02:28:20;;;;;;;2.22;0.57;;;19.60;68.90;;;;;;5067468;28;20207;-81
2022/09/12 02:30:58;;;;;;;0.95;0.45;;;19.70;69.20;;;;;;5057016;28;20299;-81
2022/09/12 02:33:38;;;;;;;2.20;0.50;;;19.90;70.00;;;;;;5067600;28;20619;-82
2022/09/12 02:36:16;;;;;;;0.55;0.40;;;20.10;67.70;;;;;;5069935;28;20575;-81
2022/09/12 02:38:49;;;;;;;1.05;0.40;;;20.10;68.30;;;;;;5069306;28;20649;-82
2022/09/12 02:41:21;;;;;;;0.80;0.43;;;20.20;69.00;;;;;;5069350;28;20248;-82
2022/09/12 02:43:57;;;;;;;1.10;0.60;;;20.00;70.70;;;;;;5068373;28;20588;-80
2022/09/12 02:46:34;;;;;;;1.35;0.60;;;20.20;69.80;;;;;;5068798;28;20195;-80
2022/09/12 02:49:08;;;;;;;0.60;0.40;;;20.40;67.90;;;;;;5066436;28;20283;-82
2022/09/12 02:51:40;;;;;;;1.02;0.43;;;20.60;67.70;;;;;;5069048;28;20692;-82
2022/09/12 02:54:12;;;;;;;2.17;0.40;;;20.60;65.40;;;;;;5066788;28;20209;-82
2022/09/12 02:56:45;;;;;;;1.67;0.43;;;20.50;64.70;;;;;;5069710;28;20196;-81
2022/09/12 02:59:18;;;;;;;0.82;0.40;;;20.40;65.10;;;;;;5069011;28;20200;-82
2022/09/12 03:02:24;;;;;;;1.25;0.50;;;20.30;65.90;;;;;;5069171;28;20279;-82
2022/09/12 03:05:24;;;;;;;0.70;0.43;;;20.40;66.70;;;;;;5062763;28;20234;-80
2022/09/12 03:08:21;;;;;;;2.40;0.55;;;20.70;68.50;;;;;;5069673;28;20199;-82
2022/09/12 03:11:21;;;;;;;0.98;0.43;;;20.80;65.70;;;;;;5069016;28;20196;-80
2022/09/12 03:14:01;;;;;;;1.27;0.50;;;21.10;66.40;;;;;;5058766;28;20191;-81
2022/09/12 03:16:40;;;;;;;0.65;0.43;;;21.00;65.60;;;;;;5054019;28;20192;-81
2022/09/12 03:19:21;;;;;;;1.88;0.90;;;21.10;64.50;;;;;;5065784;28;20670;-81
2022/09/12 03:22:02;;;;;;;0.90;0.50;;;21.00;65.10;;;;;;5068688;28;20196;-81
2022/09/12 03:24:36;;;;;;;2.17;0.47;;;21.00;63.90;;;;;;5066454;28;20220;-82
2022/09/12 03:27:12;;;;;;;1.27;0.38;;;21.00;65.00;;;;;;5065356;28;20215;-81
2022/09/12 03:29:44;;;;;;;0.88;0.30;;;21.20;63.00;;;;;;5063910;28;20196;-80
2022/09/12 03:32:16;;;;;;;1.08;0.40;;;21.10;63.80;;;;;;5068191;28;20204;-83
2022/09/12 03:34:46;;;;;;;0.60;0.30;;;21.40;64.90;;;;;;5064643;28;20219;-82
2022/09/12 03:37:19;;;;;;;0.63;0.30;;;21.40;65.00;;;;;;5050172;28;20239;-84
2022/09/12 03:39:50;;;;;;;1.45;0.40;;;21.70;65.20;;;;;;5059014;28;20234;-83
2022/09/12 03:42:21;;;;;;;1.15;0.50;;;22.00;63.30;;;;;;5070241;28;20196;-83
2022/09/12 03:44:52;;;;;;;1.55;0.50;;;21.90;60.00;;;;;;5068041;28;20227;-83
2022/09/12 03:47:23;;;;;;;0.50;0.30;;;22.00;61.00;;;;;;5065668;28;20663;-82
2022/09/12 03:49:54;;;;;;;4.60;0.50;;;22.00;61.90;;;;;;5068124;28;20295;-80
2022/09/12 03:52:27;;;;;;;1.20;0.80;;;21.80;62.60;;;;;;5066206;28;20295;-81
2022/09/12 03:54:57;;;;;;;1.60;0.50;;;21.70;64.40;;;;;;5058929;28;20554;-82
2022/09/12 03:57:28;;;;;;;1.73;0.50;;;21.90;65.10;;;;;;5071813;28;20307;-82
2022/09/12 04:00:00;;;;;;;0.45;0.28;;;22.00;64.00;;;;;;5072613;28;20192;-81
2022/09/12 04:02:31;;;;;;;1.17;0.57;;;21.80;65.70;;;;;;5070065;28;20196;-81
2022/09/12 04:05:02;;;;;;;2.47;0.60;;;21.90;65.50;;;;;;5071423;28;20223;-81
2022/09/12 04:07:35;;;;;;;0.73;0.43;;;22.00;65.50;;;;;;5072740;28;20203;-81
2022/09/12 04:10:06;;;;;;;0.88;0.50;;;21.90;64.30;;;;;;5071232;28;20196;-81
2022/09/12 04:12:38;;;;;;;0.88;0.52;;;21.70;66.20;;;;;;5070841;28;20196;-83
2022/09/12 04:15:10;;;;;;;1.45;0.55;;;21.70;67.50;;;;;;5073395;28;20228;-83
2022/09/12 04:17:40;;;;;;;2.28;0.52;;;21.80;65.00;;;;;;5064213;28;20192;-82
2022/09/12 04:20:12;;;;;;;1.92;0.60;;;21.80;65.10;;;;;;5070794;28;20682;-83
2022/09/12 04:22:44;;;;;;;1.08;0.63;;;21.80;65.20;;;;;;5070165;28;20755;-82
2022/09/12 04:25:16;;;;;;;1.10;0.70;;;21.60;65.90;;;;;;5056915;28;20219;-82
2022/09/12 04:27:46;;;;;;;1.10;0.57;;;21.30;67.50;;;;;;5072526;28;20199;-82
2022/09/12 04:30:17;;;;;;;1.27;0.40;;;21.20;67.20;;;;;;5072492;28;20200;-81
2022/09/12 04:32:48;;;;;;;0.82;0.50;;;21.00;68.00;;;;;;5068590;28;20244;-81
2022/09/12 04:35:19;;;;;;;0.65;0.32;;;20.80;72.40;;;;;;5071918;28;20206;-81
2022/09/12 04:37:51;;;;;;;1.60;0.60;;;20.80;74.60;;;;;;5071691;28;20200;-81
2022/09/12 04:40:22;;;;;;;3.55;0.60;;;20.70;72.80;;;;;;5072326;28;20228;-80
2022/09/12 04:42:54;;;;;;;0.88;0.40;;;20.70;72.50;;;;;;5069875;28;20227;-81
2022/09/12 04:45:25;;;;;;;0.88;0.50;;;20.60;71.50;;;;;;5070822;28;20230;-82
2022/09/12 04:47:56;;;;;;;1.05;0.30;;;20.60;72.00;;;;;;5062166;28;20532;-82
2022/09/12 04:50:28;;;;;;;1.98;0.50;;;20.50;73.40;;;;;;5070939;28;20222;-83
2022/09/12 04:53:00;;;;;;;1.02;0.45;;;20.40;73.30;;;;;;5058113;28;20200;-81
2022/09/12 04:55:31;;;;;;;1.67;0.68;;;20.30;74.00;;;;;;5072102;28;20725;-83
2022/09/12 04:58:03;;;;;;;1.20;0.60;;;20.40;72.50;;;;;;5069633;28;20227;-81
2022/09/12 05:00:34;;;;;;;1.77;0.50;;;20.50;71.90;;;;;;5071288;28;20730;-83
2022/09/12 05:03:05;;;;;;;1.33;0.60;;;20.60;71.60;;;;;;5068623;28;20208;-83
2022/09/12 05:05:37;;;;;;;0.95;0.50;;;20.60;71.20;;;;;;5072228;28;20779;-83
2022/09/12 05:08:10;;;;;;;0.77;0.40;;;20.60;73.60;;;;;;5070768;28;20202;-80
2022/09/12 05:10:41;;;;;;;1.83;0.60;;;20.40;73.60;;;;;;5071546;28;20198;-80
2022/09/12 05:13:12;;;;;;;1.73;0.68;;;20.30;75.00;;;;;;5070328;28;20623;-82
2022/09/12 05:15:42;;;;;;;2.95;0.60;;;20.20;74.90;;;;;;5071041;28;20220;-81
2022/09/12 05:18:13;;;;;;;1.00;0.30;;;20.10;74.00;;;;;;5065279;28;20561;-81
2022/09/12 05:20:44;;;;;;;1.10;0.60;;;20.10;75.80;;;;;;5069414;28;20283;-81
2022/09/12 05:23:16;;;;;;;1.02;0.30;;;20.10;76.10;;;;;;5070537;28;20223;-80
2022/09/12 05:25:52;;;;;;;1.58;0.65;;;20.00;78.00;;;;;;5071363;28;20787;-80
2022/09/12 05:28:23;;;;;;;1.42;0.50;;;20.10;77.30;;;;;;5071298;28;20195;-81
2022/09/12 05:31:03;;;;;;;1.23;0.40;;;20.00;78.50;;;;;;5070400;28;20681;-81
2022/09/12 05:33:36;;;;;;;1.02;0.52;;;20.00;79.10;;;;;;5055975;28;20207;-82
2022/09/12 05:36:08;;;;;;;1.00;0.60;;;20.00;79.20;;;;;;5070064;28;20200;-82
2022/09/12 05:38:41;;;;;;;1.17;0.50;;;19.90;79.50;;;;;;5070713;28;20228;-81
2022/09/12 05:41:13;;;;;;;4.03;0.80;;;20.10;80.70;;;;;;5070586;28;20680;-82
2022/09/12 05:43:44;;;;;;;1.85;0.57;;;20.20;78.90;;;;;;5065186;28;20192;-81
2022/09/12 05:46:16;;;;;;;0.77;0.40;;;20.40;77.00;;;;;;5070752;28;20238;-81
2022/09/12 05:48:48;;;;;;;1.00;0.35;;;20.60;75.70;;;;;;5062006;28;20196;-82
2022/09/12 05:51:21;;;;;;;1.08;0.40;;;20.50;73.50;;;;;;5072112;28;20192;-82
2022/09/12 05:53:56;;;;;;;0.95;0.40;;;20.70;74.60;;;;;;5073760;28;20196;-82
2022/09/12 05:56:31;;;;;;;1.63;0.57;;;20.90;71.50;;;;;;5072076;28;20749;-82
2022/09/12 05:59:03;;;;;;;3.15;0.60;;;21.00;72.90;;;;;;5069415;28;20195;-81
2022/09/12 06:01:36;;;;;;;1.02;0.50;;;21.00;74.90;;;;;;5071242;28;20209;-82
2022/09/12 06:04:08;;;;;;;3.00;0.70;;;20.80;76.30;;;;;;5068340;28;20200;-83
2022/09/12 06:06:43;;;;;;;2.05;0.50;;;21.00;78.40;;;;;;5053448;28;20248;-81
2022/09/12 06:09:17;;;;;;;1.65;0.57;;;21.10;77.80;;;;;;5055198;28;20199;-81
2022/09/12 06:11:48;;;;;;;2.60;0.60;;;20.90;75.90;;;;;;5071353;28;20206;-82
2022/09/12 06:14:21;;;;;;;0.70;0.40;;;20.60;77.20;;;;;;5067363;28;20196;-83
2022/09/12 06:16:53;;;;;;;0.77;0.50;;;20.30;76.50;;;;;;5064113;28;20203;-83
2022/09/12 06:19:26;;;;;;;0.65;0.32;;;20.10;78.40;;;;;;5067331;28;20192;-82
2022/09/12 06:22:00;;;;;;;3.53;0.50;;;19.90;80.20;;;;;;5069605;28;20586;-82
2022/09/12 06:24:33;;;;;;;4.00;0.30;;;19.80;80.70;;;;;;5065824;28;20192;-82
2022/09/12 06:27:04;;;;;;;2.42;0.50;;;19.70;81.80;;;;;;5065729;28;20266;-82
2022/09/12 06:29:34;;;;;;;1.98;0.40;;;19.60;83.10;;;;;;5071683;28;20188;-82
2022/09/12 06:32:06;;;;;;;1.00;0.57;;;19.50;83.10;;;;;;5071183;28;20242;-82
2022/09/12 06:34:37;;;;;;;3.30;0.60;;;19.30;85.90;;;;;;5069570;28;20428;-82
2022/09/12 06:37:07;;;;;;;1.38;0.52;;;19.20;86.30;;;;;;5079449;28;20204;-81
2022/09/12 06:39:44;;;;;;;1.38;0.50;;;19.20;87.50;;;;;;5070072;28;20216;-83
2022/09/12 06:42:15;;;;;;;0.65;0.50;;;19.10;87.00;;;;;;5069602;28;20677;-82
2022/09/12 06:44:46;;;;;;;1.92;0.60;;;19.10;86.00;;;;;;5074855;28;20248;-81
2022/09/12 06:47:17;;;;;;;1.73;0.60;;;19.10;87.30;;;;;;5065330;28;20200;-81
2022/09/12 06:49:47;;;;;;;1.33;0.45;;;19.10;86.40;;;;;;5064445;28;20670;-80
2022/09/12 06:52:19;;;;;;;2.08;0.60;;;19.10;86.70;;;;;;5057960;28;20192;-81
2022/09/12 06:54:52;;;;;;;2.15;0.30;;;19.10;89.20;;;;;;5074161;28;20242;-81
2022/09/12 06:57:29;;;;;;;1.65;0.60;;;19.00;90.80;;;;;;5066479;28;20196;-81
2022/09/12 06:59:59;;;;;;;1.02;0.40;;;19.00;91.40;;;;;;5069256;28;20219;-82
2022/09/12 07:02:30;;;;;;;1.15;0.40;;;18.90;93.00;;;;;;5062642;28;20192;-81
2022/09/12 07:05:01;;;;;;;0.43;0.30;;;18.90;94.40;;;;;;5067974;28;20196;-81
2022/09/12 07:07:33;;;;;;;1.05;0.40;;;18.80;95.50;;;;;;5068830;28;20192;-82
2022/09/12 07:10:09;;;;;;;1.20;0.40;;;18.80;96.70;;;;;;5067504;28;20219;-81
2022/09/12 07:12:39;;;;;;;0.52;0.50;;;18.70;97.20;;;;;;5065645;28;20314;-81
2022/09/12 07:15:11;;;;;;;3.40;0.60;;;18.70;97.90;;;;;;5069525;28;20198;-82
2022/09/12 07:17:42;;;;;;;1.65;0.50;;;18.60;99.30;;;;;;5067378;28;20720;-82
2022/09/12 07:20:13;;;;;;;1.60;0.50;;;18.50;99.50;;;;;;5070617;28;20667;-81
2022/09/12 07:22:44;;;;;;;2.85;0.75;;;18.50;99.90;;;;;;5077716;28;20223;-81
2022/09/12 07:25:16;;;;;;;0.75;0.38;;;18.50;99.90;;;;;;5090281;28;20220;-81
2022/09/12 07:27:47;;;;;;;1.98;0.47;;;18.40;99.90;;;;;;5080197;28;20249;-82
2022/09/12 07:30:18;;;;;;;1.52;0.50;;;18.40;99.90;;;;;;5080052;28;20932;-80
2022/09/12 07:32:49;;;;;;;2.55;0.60;;;18.40;99.90;;;;;;5082944;28;20204;-81
2022/09/12 07:35:20;;;;;;;2.15;0.45;;;18.40;99.90;;;;;;5064858;28;20196;-81
2022/09/12 07:37:51;;;;;;;1.38;0.57;;;18.30;99.90;;;;;;5073828;28;20669;-81
2022/09/12 07:40:23;;;;;;;0.75;0.50;;;18.30;99.90;;;;;;5073741;28;20686;-81
2022/09/12 07:42:54;;;;;;;1.95;0.50;;;18.20;99.90;;;;;;5075225;28;20200;-81
2022/09/12 07:45:25;;;;;;;1.33;0.50;;;18.20;99.90;;;;;;5074290;28;20320;-81
2022/09/12 07:47:57;;;;;;;1.25;0.60;;;18.10;99.90;;;;;;5070782;28;20192;-81
2022/09/12 07:50:28;;;;;;;1.63;0.50;;;18.10;99.90;;;;;;5065283;28;20207;-81
2022/09/12 07:52:59;;;;;;;0.77;0.40;;;18.00;99.90;;;;;;5071461;28;20196;-83
2022/09/12 07:55:33;;;;;;;2.47;0.82;;;18.00;99.90;;;;;;5072634;28;20200;-83
2022/09/12 07:58:05;;;;;;;2.78;1.00;;;18.00;99.90;;;;;;5062249;28;20196;-82
2022/09/12 08:00:36;;;;;;;1.77;0.60;;;18.00;99.90;;;;;;5056453;28;20230;-80
2022/09/12 08:03:07;;;;;;;1.05;0.60;;;18.00;99.90;;;;;;5068416;28;20188;-79
2022/09/12 08:05:38;;;;;;;2.35;0.70;;;17.90;99.90;;;;;;5071492;28;20791;-79
2022/09/12 08:08:09;;;;;;;1.25;0.65;;;17.90;99.90;;;;;;5072688;28;20584;-79
2022/09/12 08:10:41;;;;;;;1.92;0.60;;;17.90;99.90;;;;;;5070290;28;20567;-80
2022/09/12 08:13:12;;;;;;;1.30;0.50;;;17.90;99.90;;;;;;5061764;28;20203;-79
2022/09/12 08:15:43;;;;;;;1.13;0.52;;;17.90;99.90;;;;;;5065535;28;20216;-81
2022/09/12 08:18:14;;;;;;;0.80;0.50;;;17.90;99.90;;;;;;5070168;28;20200;-79
2022/09/12 08:20:45;;;;;;;0.80;0.50;;;17.80;99.90;;;;;;5073056;28;20232;-79
2022/09/12 08:23:20;;;;;;;2.13;0.63;;;17.80;99.90;;;;;;5072664;28;20619;-79
2022/09/12 08:25:52;;;;;;;1.02;0.52;;;17.70;99.90;;;;;;5072965;28;20708;-80
2022/09/12 08:28:26;;;;;;;1.25;0.60;;;17.70;99.90;;;;;;5070879;28;20207;-80
2022/09/12 08:31:01;;;;;;;0.73;0.60;;;17.70;99.90;;;;;;5068447;28;20192;-77
2022/09/12 08:33:33;;;;;;;1.42;0.65;;;17.70;99.90;;;;;;5065576;28;20196;-79
2022/09/12 08:36:08;;;;;;;0.80;0.60;;;17.70;99.90;;;;;;5070481;28;20208;-79
2022/09/12 08:38:40;;;;;;;0.77;0.50;;;17.70;99.90;;;;;;5071209;28;20223;-80
2022/09/12 08:41:21;;;;;;;1.13;0.57;;;17.70;99.90;;;;;;5069405;28;20273;-80
2022/09/12 08:44:19;;;;;;;0.47;0.43;;;17.70;99.90;;;;;;5070672;28;20235;-81
2022/09/12 08:47:03;;;;;;;1.23;0.40;;;17.60;99.90;;;;;;5059281;28;20240;-78
2022/09/12 08:49:36;;;;;;;0.70;0.50;;;17.60;99.90;;;;;;5067175;28;20202;-80
2022/09/12 08:52:12;;;;;;;2.38;0.63;;;17.60;99.90;;;;;;5071830;28;20206;-79
2022/09/12 08:54:45;;;;;;;1.38;0.45;;;17.50;99.90;;;;;;5070853;28;20231;-79
2022/09/12 08:57:18;;;;;;;0.75;0.50;;;17.50;99.90;;;;;;5071616;28;20242;-79
2022/09/12 08:59:49;;;;;;;2.83;0.80;;;17.40;99.90;;;;;;5071912;28;20206;-79
2022/09/12 09:02:47;;;;;;;2.05;1.50;;;17.40;99.90;;;;;;5071117;28;20198;-80
2022/09/12 09:05:26;;;;;;;1.52;1.25;;;17.40;99.90;;;;;;5068627;28;20192;-80
2022/09/12 09:08:25;;;;;;;1.65;1.20;;;17.40;99.90;;;;;;5068364;28;20291;-80
2022/09/12 09:11:06;;;;;;;3.53;1.00;;;17.40;99.90;;;;;;5067731;28;20283;-81
2022/09/12 09:16:42;;;;;;;1.38;0.95;;;17.30;99.90;;;;;;5067299;28;20601;-80
2022/09/12 09:19:18;;;;;;;1.08;0.80;;;17.20;99.90;;;;;;5068611;28;20213;-79
2022/09/12 09:21:53;;;;;;;1.92;1.02;;;17.20;99.90;;;;;;5071905;28;20253;-79
2022/09/12 09:24:30;;;;;;;1.02;0.90;;;17.20;99.90;;;;;;5070628;28;20689;-78
2022/09/12 09:27:04;;;;;;;1.23;0.90;;;17.10;99.90;;;;;;5070482;28;20230;-79
2022/09/12 09:29:41;;;;;;;1.50;0.90;;;17.10;99.90;;;;;;5070555;28;20296;-80
2022/09/12 09:32:21;;;;;;;1.58;0.77;;;17.10;99.90;;;;;;5067642;28;20212;-80
2022/09/12 09:34:52;;;;;;;1.15;0.90;;;17.10;99.90;;;;;;5066794;28;20192;-77
2022/09/12 09:37:27;;;;;;;1.23;0.93;;;17.00;99.90;;;;;;5070788;28;20188;-79
2022/09/12 09:40:08;;;;;;;3.35;1.70;;;17.00;99.90;;;;;;5067454;28;20228;-79
2022/09/12 09:42:46;;;;;;;2.00;1.80;;;16.90;99.90;;;;;;5068430;28;20215;-80
2022/09/12 09:45:23;;;;;;;2.90;1.58;;;16.90;99.90;;;;;;5070390;28;20192;-80
2022/09/12 09:47:58;;;;;;;2.63;2.42;;;16.90;99.90;;;;;;5067337;28;20281;-81
2022/09/12 09:50:34;;;;;;;11.32;10.00;;;16.90;99.90;;;;;;5066782;28;20282;-81
2022/09/12 09:53:06;;;;;;;7.70;6.07;;;16.90;99.90;;;;;;5060645;28;20619;-81
2022/09/12 09:55:42;;;;;;;11.15;8.80;;;16.80;99.90;;;;;;5070331;28;20579;-80
2022/09/12 09:58:31;;;;;;;6.80;5.30;;;16.80;99.90;;;;;;5067954;28;20195;-81
2022/09/12 10:01:05;;;;;;;2.72;1.73;;;16.80;99.90;;;;;;5068915;28;20211;-80
2022/09/12 10:03:38;;;;;;;2.33;1.48;;;16.80;99.90;;;;;;5069281;28;20344;-80
2022/09/12 10:06:31;;;;;;;2.05;1.50;;;16.70;99.90;;;;;;5070638;28;20224;-80
2022/09/12 10:09:22;;;;;;;5.45;2.10;;;16.70;99.90;;;;;;5067530;28;20197;-80
2022/09/12 10:11:54;;;;;;;3.33;2.00;;;16.70;99.90;;;;;;5066859;28;20192;-81
2022/09/12 10:14:33;;;;;;;2.55;1.73;;;16.70;99.90;;;;;;5062700;28;20201;-80
2022/09/12 10:17:21;;;;;;;2.83;1.70;;;16.60;99.90;;;;;;5064521;28;20208;-80
2022/09/12 10:19:52;;;;;;;3.08;1.77;;;16.60;99.90;;;;;;5063856;28;20227;-79
2022/09/12 10:22:25;;;;;;;1.60;1.25;;;16.60;99.90;;;;;;5075984;28;20677;-79
2022/09/12 10:25:00;;;;;;;4.00;1.50;;;16.60;99.90;;;;;;5080523;28;20250;-80
2022/09/12 10:27:34;;;;;;;4.55;1.80;;;16.50;99.90;;;;;;5077519;28;20215;-80
2022/09/12 10:30:07;;;;;;;1.77;1.23;;;16.50;99.90;;;;;;5062883;28;20192;-81
2022/09/12 10:32:43;;;;;;;1.80;1.20;;;16.50;99.90;;;;;;5069407;28;20227;-81
2022/09/12 10:35:24;;;;;;;2.40;1.33;;;16.50;99.90;;;;;;5067369;28;20214;-81
2022/09/12 10:37:58;;;;;;;2.55;1.35;;;16.50;99.90;;;;;;5070873;28;20207;-80
2022/09/12 10:40:31;;;;;;;2.25;1.27;;;16.50;99.90;;;;;;5064970;28;20279;-79
2022/09/12 10:43:03;;;;;;;2.33;1.40;;;16.50;99.90;;;;;;5063844;28;20203;-80
2022/09/12 10:45:38;;;;;;;2.45;1.30;;;16.50;99.90;;;;;;5059289;28;20535;-80
2022/09/12 10:48:35;;;;;;;2.63;1.27;;;16.50;99.90;;;;;;5064234;28;20234;-81
2022/09/12 10:51:27;;;;;;;4.00;1.45;;;16.50;99.90;;;;;;5068626;28;20200;-80
2022/09/12 10:54:03;;;;;;;2.67;1.50;;;16.50;99.90;;;;;;5070111;28;20212;-81
2022/09/12 10:56:38;;;;;;;3.75;1.55;;;16.50;99.90;;;;;;5069253;28;20223;-81
2022/09/12 10:59:17;;;;;;;1.30;1.10;;;16.50;99.90;;;;;;5067481;28;20199;-81
2022/09/12 11:01:52;;;;;;;2.55;1.50;;;16.40;99.90;;;;;;5066759;28;20200;-81
2022/09/12 11:04:33;;;;;;;4.75;1.58;;;16.40;99.90;;;;;;5061671;28;20191;-81
2022/09/12 11:07:31;;;;;;;4.00;1.38;;;16.40;99.90;;;;;;5070019;28;20223;-81
2022/09/12 11:10:12;;;;;;;2.03;1.20;;;16.40;99.90;;;;;;5061872;28;20552;-81
2022/09/12 11:12:54;;;;;;;2.15;1.23;;;16.30;99.90;;;;;;5068212;28;20200;-80
2022/09/12 11:15:40;;;;;;;3.90;1.30;;;16.40;99.90;;;;;;5069407;28;20204;-80
2022/09/12 11:18:29;;;;;;;2.30;1.30;;;16.40;99.90;;;;;;5074540;28;20636;-80
2022/09/12 11:21:22;;;;;;;2.45;1.30;;;16.40;99.90;;;;;;5081911;28;20283;-80
2022/09/12 11:24:26;;;;;;;2.17;1.30;;;16.40;99.90;;;;;;5065264;28;20196;-80
2022/09/12 11:27:22;;;;;;;2.50;1.30;;;16.30;99.90;;;;;;5068292;28;20219;-79
2022/09/12 11:29:56;;;;;;;2.10;1.40;;;16.30;99.90;;;;;;5072327;28;20646;-79
2022/09/12 11:33:10;;;;;;;1.85;1.25;;;16.30;99.90;;;;;;5068871;28;20264;-79
2022/09/12 11:35:48;;;;;;;1.95;1.17;;;16.30;99.90;;;;;;5021797;28;20203;-79
2022/09/12 11:38:46;;;;;;;1.90;1.25;;;16.30;99.90;;;;;;5044412;28;20204;-79
2022/09/12 11:41:25;;;;;;;2.67;1.23;;;16.20;99.90;;;;;;5066268;28;20638;-79
2022/09/12 11:44:02;;;;;;;1.73;1.30;;;16.20;99.90;;;;;;5061125;28;20196;-80
2022/09/12 11:46:38;;;;;;;2.03;1.20;;;16.20;99.90;;;;;;5070665;28;20202;-80
2022/09/12 11:49:21;;;;;;;2.08;1.10;;;16.10;99.90;;;;;;5068800;28;20631;-81
2022/09/12 11:51:57;;;;;;;1.30;1.10;;;16.20;99.90;;;;;;5063562;28;20221;-81
2022/09/12 11:54:37;;;;;;;1.70;1.20;;;16.20;99.90;;;;;;5067738;28;20230;-80
2022/09/12 12:00:08;;;;;;;1.65;1.00;;;16.10;99.90;;;;;;5070793;28;20196;-83
2022/09/12 12:02:46;;;;;;;1.38;0.90;;;16.20;99.90;;;;;;5067862;28;20203;-82
2022/09/12 12:05:25;;;;;;;1.20;0.90;;;16.20;99.90;;;;;;5069832;28;20206;-83
2022/09/12 12:08:01;;;;;;;2.40;0.93;;;16.20;99.90;;;;;;5061983;28;20247;-82
2022/09/12 12:10:38;;;;;;;1.10;0.80;;;16.20;99.90;;;;;;5058802;28;20217;-82
2022/09/12 12:13:19;;;;;;;2.30;1.10;;;16.20;99.90;;;;;;5068558;28;20192;-83
2022/09/12 12:15:52;;;;;;;0.60;0.60;;;16.10;99.90;;;;;;5073039;28;20214;-82
2022/09/12 12:18:29;;;;;;;1.02;0.75;;;16.00;99.90;;;;;;5076355;28;20191;-81
2022/09/12 12:21:30;;;;;;;0.88;0.60;;;16.10;99.90;;;;;;5075660;28;20199;-81
2022/09/12 12:24:16;;;;;;;0.90;0.73;;;16.00;99.90;;;;;;5076758;28;20200;-82
2022/09/12 12:27:06;;;;;;;0.90;0.75;;;16.00;99.90;;;;;;5075409;28;20290;-81
2022/09/12 12:29:42;;;;;;;1.17;0.70;;;16.00;99.90;;;;;;5072357;28;20200;-81
2022/09/12 12:32:27;;;;;;;2.20;0.80;;;16.00;99.90;;;;;;5077544;28;20211;-82
2022/09/12 12:35:40;;;;;;;2.83;1.25;;;16.00;99.90;;;;;;5073803;28;20231;-82
2022/09/12 12:38:29;;;;;;;1.17;1.00;;;15.90;99.90;;;;;;4996350;28;20196;-82
2022/09/12 12:41:31;;;;;;;1.90;1.02;;;15.90;99.90;;;;;;5064737;28;20264;-82
2022/09/12 12:44:41;;;;;;;1.50;1.00;;;15.90;99.90;;;;;;5063093;28;20198;-81
2022/09/12 12:47:23;;;;;;;1.45;0.90;;;15.90;99.90;;;;;;5071780;28;20590;-81
2022/09/12 12:49:56;;;;;;;1.23;0.68;;;15.90;99.90;;;;;;5071022;28;20187;-82
2022/09/12 12:52:30;;;;;;;0.88;0.60;;;15.90;99.90;;;;;;5075560;28;20255;-81
2022/09/12 12:55:03;;;;;;;1.20;0.60;;;15.90;99.90;;;;;;5074213;28;21242;-81
2022/09/12 12:57:50;;;;;;;1.83;0.60;;;15.90;99.90;;;;;;5055287;28;20192;-81
2022/09/12 13:00:35;;;;;;;1.08;0.63;;;15.90;99.90;;;;;;5058026;28;20227;-80
2022/09/12 13:03:19;;;;;;;0.77;0.50;;;15.90;99.90;;;;;;5065663;28;20303;-80
2022/09/12 13:05:54;;;;;;;1.67;0.90;;;15.90;99.90;;;;;;5062810;28;20206;-81
2022/09/12 13:08:34;;;;;;;1.23;0.50;;;15.80;99.90;;;;;;5071101;28;20223;-81
2022/09/12 13:11:09;;;;;;;0.52;0.40;;;15.90;99.90;;;;;;5068591;28;20196;-80
2022/09/12 13:13:43;;;;;;;0.70;0.40;;;15.80;99.90;;;;;;5052633;28;20196;-80
2022/09/12 13:16:33;;;;;;;0.50;0.50;;;15.80;99.90;;;;;;5072379;28;20282;-81
2022/09/12 13:19:12;;;;;;;0.47;0.40;;;15.80;99.90;;;;;;5064419;28;20565;-82
2022/09/12 13:21:57;;;;;;;0.60;0.50;;;15.80;99.90;;;;;;5072090;28;20200;-83
2022/09/12 13:24:29;;;;;;;1.75;0.40;;;15.80;99.90;;;;;;5072757;28;20234;-83
2022/09/12 13:27:01;;;;;;;0.57;0.38;;;15.70;99.90;;;;;;5063987;28;20223;-81
2022/09/12 13:29:32;;;;;;;0.63;0.40;;;15.70;99.90;;;;;;5069716;28;20200;-81
2022/09/12 13:32:05;;;;;;;1.02;0.47;;;15.70;99.90;;;;;;5071437;28;20219;-81
2022/09/12 13:34:44;;;;;;;0.55;0.40;;;15.70;99.90;;;;;;5069279;28;20204;-81
2022/09/12 13:37:35;;;;;;;1.52;0.68;;;15.60;99.90;;;;;;5072440;28;20199;-81
2022/09/12 13:40:29;;;;;;;1.15;0.50;;;15.70;99.90;;;;;;5069681;28;20601;-81